sensor_id;sensor_type;location;lat;lon;timestamp;temperature;humidity
947;DHT22;460;48.734;9.152;2022-10-03T00:01:59;11.70;99.90
947;DHT22;460;48.734;9.152;2022-10-03T00:04:40;11.40;99.90
947;DHT22;460;48.734;9.152;2022-10-03T00:07:20;11.60;99.90
947;DHT22;460;48.734;9.152;2022-10-03T00:10:00;11.60;99.90
947;DHT22;460;48.734;9.152;2022-10-03T00:13:05;11.60;99.90
947;DHT22;460;48.734;9.152;2022-10-03T00:15:36;11.60;99.90
947;DHT22;460;48.734;9.152;2022-10-03T00:18:15;11.50;99.90
947;DHT22;460;48.734;9.152;2022-10-03T00:20:50;11.40;99.90
947;DHT22;460;48.734;9.152;2022-10-03T00:23:25;11.50;99.90
947;DHT22;460;48.734;9.152;2022-10-03T00:25:58;11.40;99.90
947;DHT22;460;48.734;9.152;2022-10-03T00:28:53;11.40;99.90
947;DHT22;460;48.734;9.152;2022-10-03T00:31:36;11.30;99.90
947;DHT22;460;48.734;9.152;2022-10-03T00:34:13;11.20;99.90
947;DHT22;460;48.734;9.152;2022-10-03T00:36:49;11.20;99.90
947;DHT22;460;48.734;9.152;2022-10-03T00:39:29;11.30;99.90
947;DHT22;460;48.734;9.152;2022-10-03T00:42:31;11.20;99.90
947;DHT22;460;48.734;9.152;2022-10-03T00:45:27;11.20;99.90
947;DHT22;460;48.734;9.152;2022-10-03T00:48:25;11.30;99.90
947;DHT22;460;48.734;9.152;2022-10-03T00:51:23;11.30;99.90
947;DHT22;460;48.734;9.152;2022-10-03T00:54:10;11.30;99.90
947;DHT22;460;48.734;9.152;2022-10-03T00:57:07;11.30;99.90
947;DHT22;460;48.734;9.152;2022-10-03T01:00:00;11.30;99.90
947;DHT22;460;48.734;9.152;2022-10-03T01:02:41;11.30;99.90
947;DHT22;460;48.734;9.152;2022-10-03T01:05:15;11.30;99.90
947;DHT22;460;48.734;9.152;2022-10-03T01:07:57;11.30;99.90
947;DHT22;460;48.734;9.152;2022-10-03T01:10:35;11.30;99.90
947;DHT22;460;48.734;9.152;2022-10-03T01:13:14;11.30;99.90
947;DHT22;460;48.734;9.152;2022-10-03T01:15:52;11.30;99.90
947;DHT22;460;48.734;9.152;2022-10-03T01:18:31;11.30;99.90
947;DHT22;460;48.734;9.152;2022-10-03T01:21:10;11.40;99.90
947;DHT22;460;48.734;9.152;2022-10-03T01:23:59;11.40;99.90
947;DHT22;460;48.734;9.152;2022-10-03T01:26:53;11.40;99.90
947;DHT22;460;48.734;9.152;2022-10-03T01:29:25;11.40;99.90
947;DHT22;460;48.734;9.152;2022-10-03T01:32:19;11.40;99.90
947;DHT22;460;48.734;9.152;2022-10-03T01:34:56;11.40;99.90
947;DHT22;460;48.734;9.152;2022-10-03T01:37:30;11.40;99.90
947;DHT22;460;48.734;9.152;2022-10-03T01:40:05;11.30;99.90
947;DHT22;460;48.734;9.152;2022-10-03T01:42:40;11.30;99.90
947;DHT22;460;48.734;9.152;2022-10-03T01:45:21;11.20;99.90
947;DHT22;460;48.734;9.152;2022-10-03T01:47:54;11.20;99.90
947;DHT22;460;48.734;9.152;2022-10-03T01:50:29;11.10;99.90
947;DHT22;460;48.734;9.152;2022-10-03T01:53:03;11.00;99.90
947;DHT22;460;48.734;9.152;2022-10-03T01:55:38;11.00;99.90
947;DHT22;460;48.734;9.152;2022-10-03T01:58:10;11.00;99.90
947;DHT22;460;48.734;9.152;2022-10-03T02:00:46;10.90;99.90
947;DHT22;460;48.734;9.152;2022-10-03T02:03:20;10.90;99.90
947;DHT22;460;48.734;9.152;2022-10-03T02:05:53;10.90;99.90
947;DHT22;460;48.734;9.152;2022-10-03T02:08:40;10.90;99.90
947;DHT22;460;48.734;9.152;2022-10-03T02:11:24;10.90;99.90
947;DHT22;460;48.734;9.152;2022-10-03T02:13:56;10.90;99.90
947;DHT22;460;48.734;9.152;2022-10-03T02:16:32;11.00;99.90
947;DHT22;460;48.734;9.152;2022-10-03T02:19:06;11.00;99.90
947;DHT22;460;48.734;9.152;2022-10-03T02:21:46;11.10;99.90
947;DHT22;460;48.734;9.152;2022-10-03T02:24:23;11.10;99.90
947;DHT22;460;48.734;9.152;2022-10-03T02:35:58;11.20;99.90
947;DHT22;460;48.734;9.152;2022-10-03T02:38:51;11.20;99.90
947;DHT22;460;48.734;9.152;2022-10-03T02:41:55;11.20;99.90
947;DHT22;460;48.734;9.152;2022-10-03T02:45:01;11.20;99.90
947;DHT22;460;48.734;9.152;2022-10-03T02:48:02;11.20;99.90
947;DHT22;460;48.734;9.152;2022-10-03T02:54:12;11.10;99.90
947;DHT22;460;48.734;9.152;2022-10-03T03:02:52;10.80;99.90
947;DHT22;460;48.734;9.152;2022-10-03T03:08:53;10.80;99.90
947;DHT22;460;48.734;9.152;2022-10-03T03:17:31;10.50;99.90
947;DHT22;460;48.734;9.152;2022-10-03T03:23:11;10.50;99.90
947;DHT22;460;48.734;9.152;2022-10-03T03:28:55;10.40;99.90
947;DHT22;460;48.734;9.152;2022-10-03T03:31:30;10.30;99.90
947;DHT22;460;48.734;9.152;2022-10-03T03:34:05;10.20;99.90
947;DHT22;460;48.734;9.152;2022-10-03T03:36:39;10.10;99.90
947;DHT22;460;48.734;9.152;2022-10-03T03:39:22;10.10;99.90
947;DHT22;460;48.734;9.152;2022-10-03T03:42:06;10.10;99.90
947;DHT22;460;48.734;9.152;2022-10-03T03:45:01;10.00;99.90
947;DHT22;460;48.734;9.152;2022-10-03T03:50:31;10.00;99.90
947;DHT22;460;48.734;9.152;2022-10-03T03:53:13;10.00;99.90
947;DHT22;460;48.734;9.152;2022-10-03T03:55:58;10.00;99.90
947;DHT22;460;48.734;9.152;2022-10-03T03:58:35;10.00;99.90
947;DHT22;460;48.734;9.152;2022-10-03T04:01:33;10.00;99.90
947;DHT22;460;48.734;9.152;2022-10-03T04:04:14;10.10;99.90
947;DHT22;460;48.734;9.152;2022-10-03T04:06:50;10.10;99.90
947;DHT22;460;48.734;9.152;2022-10-03T04:09:46;10.10;99.90
947;DHT22;460;48.734;9.152;2022-10-03T04:12:29;9.90;99.90
947;DHT22;460;48.734;9.152;2022-10-03T04:15:20;9.90;99.90
947;DHT22;460;48.734;9.152;2022-10-03T04:18:03;9.90;99.90
947;DHT22;460;48.734;9.152;2022-10-03T04:21:05;10.00;99.90
947;DHT22;460;48.734;9.152;2022-10-03T04:23:57;10.00;99.90
947;DHT22;460;48.734;9.152;2022-10-03T04:26:40;10.00;99.90
947;DHT22;460;48.734;9.152;2022-10-03T04:29:30;10.00;99.90
947;DHT22;460;48.734;9.152;2022-10-03T04:32:14;9.90;99.90
947;DHT22;460;48.734;9.152;2022-10-03T04:34:54;9.90;99.90
947;DHT22;460;48.734;9.152;2022-10-03T04:37:31;9.90;99.90
947;DHT22;460;48.734;9.152;2022-10-03T04:40:09;9.90;99.90
947;DHT22;460;48.734;9.152;2022-10-03T04:42:51;9.80;99.90
947;DHT22;460;48.734;9.152;2022-10-03T04:45:40;9.90;99.90
947;DHT22;460;48.734;9.152;2022-10-03T04:48:14;10.00;99.90
947;DHT22;460;48.734;9.152;2022-10-03T04:50:53;10.00;99.90
947;DHT22;460;48.734;9.152;2022-10-03T04:53:40;10.00;99.90
947;DHT22;460;48.734;9.152;2022-10-03T04:56:38;10.00;99.90
947;DHT22;460;48.734;9.152;2022-10-03T04:59:22;10.00;99.90
947;DHT22;460;48.734;9.152;2022-10-03T05:01:54;10.10;99.90
947;DHT22;460;48.734;9.152;2022-10-03T05:04:31;10.00;99.90
947;DHT22;460;48.734;9.152;2022-10-03T05:07:10;10.00;99.90
947;DHT22;460;48.734;9.152;2022-10-03T05:09:44;10.00;99.90
947;DHT22;460;48.734;9.152;2022-10-03T05:12:18;10.10;99.90
947;DHT22;460;48.734;9.152;2022-10-03T05:15:10;10.10;99.90
947;DHT22;460;48.734;9.152;2022-10-03T05:17:47;10.10;99.90
947;DHT22;460;48.734;9.152;2022-10-03T05:20:36;10.10;99.90
947;DHT22;460;48.734;9.152;2022-10-03T05:23:18;10.20;99.90
947;DHT22;460;48.734;9.152;2022-10-03T05:25:53;10.20;99.90
947;DHT22;460;48.734;9.152;2022-10-03T05:28:31;10.20;99.90
947;DHT22;460;48.734;9.152;2022-10-03T05:31:05;10.30;99.90
947;DHT22;460;48.734;9.152;2022-10-03T05:33:44;10.30;99.90
947;DHT22;460;48.734;9.152;2022-10-03T05:36:25;10.30;99.90
947;DHT22;460;48.734;9.152;2022-10-03T05:42:19;10.40;99.90
947;DHT22;460;48.734;9.152;2022-10-03T05:45:00;10.30;99.90
947;DHT22;460;48.734;9.152;2022-10-03T05:47:31;10.40;99.90
947;DHT22;460;48.734;9.152;2022-10-03T05:50:46;10.50;99.90
947;DHT22;460;48.734;9.152;2022-10-03T05:56:37;10.50;99.90
947;DHT22;460;48.734;9.152;2022-10-03T05:59:38;10.50;99.90
947;DHT22;460;48.734;9.152;2022-10-03T06:02:42;10.50;99.90
947;DHT22;460;48.734;9.152;2022-10-03T06:05:19;10.50;99.90
947;DHT22;460;48.734;9.152;2022-10-03T06:08:09;10.60;99.90
947;DHT22;460;48.734;9.152;2022-10-03T06:10:48;10.60;99.90
947;DHT22;460;48.734;9.152;2022-10-03T06:13:23;10.60;99.90
947;DHT22;460;48.734;9.152;2022-10-03T06:16:07;10.60;99.90
947;DHT22;460;48.734;9.152;2022-10-03T06:34:09;10.70;99.90
947;DHT22;460;48.734;9.152;2022-10-03T06:37:04;10.70;99.90
947;DHT22;460;48.734;9.152;2022-10-03T06:43:03;10.80;99.90
947;DHT22;460;48.734;9.152;2022-10-03T06:52:25;10.70;99.90
947;DHT22;460;48.734;9.152;2022-10-03T07:01:46;11.00;99.90
947;DHT22;460;48.734;9.152;2022-10-03T07:04:47;11.00;99.90
947;DHT22;460;48.734;9.152;2022-10-03T07:08:12;11.00;99.90
947;DHT22;460;48.734;9.152;2022-10-03T07:10:55;11.00;99.90
947;DHT22;460;48.734;9.152;2022-10-03T07:23:27;11.00;99.90
947;DHT22;460;48.734;9.152;2022-10-03T07:26:21;11.00;99.90
947;DHT22;460;48.734;9.152;2022-10-03T07:35:09;11.00;99.90
947;DHT22;460;48.734;9.152;2022-10-03T07:37:58;11.00;99.90
947;DHT22;460;48.734;9.152;2022-10-03T07:41:19;11.00;99.90
947;DHT22;460;48.734;9.152;2022-10-03T07:44:18;11.00;99.90
947;DHT22;460;48.734;9.152;2022-10-03T07:47:31;11.00;99.90
947;DHT22;460;48.734;9.152;2022-10-03T07:50:25;11.00;99.90
947;DHT22;460;48.734;9.152;2022-10-03T07:53:03;11.10;99.90
947;DHT22;460;48.734;9.152;2022-10-03T07:55:54;11.10;99.90
947;DHT22;460;48.734;9.152;2022-10-03T07:58:41;11.00;99.90
947;DHT22;460;48.734;9.152;2022-10-03T08:05:06;11.10;99.90
947;DHT22;460;48.734;9.152;2022-10-03T08:08:00;11.10;99.90
947;DHT22;460;48.734;9.152;2022-10-03T08:13:53;11.20;99.90
947;DHT22;460;48.734;9.152;2022-10-03T08:16:57;11.30;99.90
947;DHT22;460;48.734;9.152;2022-10-03T08:19:46;11.30;99.90
947;DHT22;460;48.734;9.152;2022-10-03T08:22:25;11.30;99.90
947;DHT22;460;48.734;9.152;2022-10-03T08:25:23;11.30;99.90
947;DHT22;460;48.734;9.152;2022-10-03T08:28:32;11.30;99.90
947;DHT22;460;48.734;9.152;2022-10-03T08:34:31;11.40;99.90
947;DHT22;460;48.734;9.152;2022-10-03T08:37:16;11.40;99.90
947;DHT22;460;48.734;9.152;2022-10-03T08:40:12;11.40;99.90
947;DHT22;460;48.734;9.152;2022-10-03T08:43:13;11.30;99.90
947;DHT22;460;48.734;9.152;2022-10-03T08:45:57;11.40;99.90
947;DHT22;460;48.734;9.152;2022-10-03T08:48:48;11.50;99.90
947;DHT22;460;48.734;9.152;2022-10-03T08:51:52;11.50;99.90
947;DHT22;460;48.734;9.152;2022-10-03T08:58:05;11.60;99.90
947;DHT22;460;48.734;9.152;2022-10-03T09:00:56;11.60;99.90
947;DHT22;460;48.734;9.152;2022-10-03T09:03:53;11.60;99.90
947;DHT22;460;48.734;9.152;2022-10-03T09:19:34;11.80;99.90
947;DHT22;460;48.734;9.152;2022-10-03T09:22:29;11.80;99.90
947;DHT22;460;48.734;9.152;2022-10-03T09:25:28;11.70;99.90
947;DHT22;460;48.734;9.152;2022-10-03T09:31:19;11.80;99.90
947;DHT22;460;48.734;9.152;2022-10-03T09:34:02;11.80;99.90
947;DHT22;460;48.734;9.152;2022-10-03T09:40:17;11.80;99.90
947;DHT22;460;48.734;9.152;2022-10-03T09:46:34;11.80;99.90
947;DHT22;460;48.734;9.152;2022-10-03T09:49:36;11.80;99.90
947;DHT22;460;48.734;9.152;2022-10-03T09:52:24;11.80;99.90
947;DHT22;460;48.734;9.152;2022-10-03T09:55:12;11.80;99.90
947;DHT22;460;48.734;9.152;2022-10-03T10:01:12;12.00;99.90
947;DHT22;460;48.734;9.152;2022-10-03T10:04:06;12.10;99.90
947;DHT22;460;48.734;9.152;2022-10-03T10:07:07;12.10;99.90
947;DHT22;460;48.734;9.152;2022-10-03T10:09:55;12.10;99.90
947;DHT22;460;48.734;9.152;2022-10-03T10:12:50;12.10;99.90
947;DHT22;460;48.734;9.152;2022-10-03T10:15:50;12.30;99.90
947;DHT22;460;48.734;9.152;2022-10-03T10:18:46;12.40;99.90
947;DHT22;460;48.734;9.152;2022-10-03T10:21:36;12.40;99.90
947;DHT22;460;48.734;9.152;2022-10-03T10:27:33;12.50;99.90
947;DHT22;460;48.734;9.152;2022-10-03T10:33:15;12.30;99.90
947;DHT22;460;48.734;9.152;2022-10-03T10:36:09;12.40;99.90
947;DHT22;460;48.734;9.152;2022-10-03T10:42:36;12.30;99.90
947;DHT22;460;48.734;9.152;2022-10-03T10:49:01;12.40;99.90
947;DHT22;460;48.734;9.152;2022-10-03T11:02:10;12.40;99.90
947;DHT22;460;48.734;9.152;2022-10-03T11:11:12;12.40;99.90
947;DHT22;460;48.734;9.152;2022-10-03T11:14:09;12.50;99.90
947;DHT22;460;48.734;9.152;2022-10-03T11:17:11;12.50;99.90
947;DHT22;460;48.734;9.152;2022-10-03T11:20:19;12.60;99.90
947;DHT22;460;48.734;9.152;2022-10-03T11:26:55;12.80;99.90
947;DHT22;460;48.734;9.152;2022-10-03T11:36:26;13.20;99.90
947;DHT22;460;48.734;9.152;2022-10-03T11:39:03;13.20;99.90
947;DHT22;460;48.734;9.152;2022-10-03T11:41:39;13.20;99.90
947;DHT22;460;48.734;9.152;2022-10-03T11:44:17;13.20;99.90
947;DHT22;460;48.734;9.152;2022-10-03T11:47:04;13.20;99.90
947;DHT22;460;48.734;9.152;2022-10-03T11:50:10;13.30;99.90
947;DHT22;460;48.734;9.152;2022-10-03T11:52:55;13.40;99.90
947;DHT22;460;48.734;9.152;2022-10-03T11:55:29;13.50;99.90
947;DHT22;460;48.734;9.152;2022-10-03T11:58:24;13.60;99.90
947;DHT22;460;48.734;9.152;2022-10-03T12:01:16;13.60;99.90
947;DHT22;460;48.734;9.152;2022-10-03T12:03:49;13.60;99.90
947;DHT22;460;48.734;9.152;2022-10-03T12:06:31;13.60;99.90
947;DHT22;460;48.734;9.152;2022-10-03T12:09:23;13.70;99.90
947;DHT22;460;48.734;9.152;2022-10-03T12:11:58;13.70;99.90
947;DHT22;460;48.734;9.152;2022-10-03T12:14:28;13.70;99.90
947;DHT22;460;48.734;9.152;2022-10-03T12:17:04;13.70;99.90
947;DHT22;460;48.734;9.152;2022-10-03T12:19:39;13.80;99.90
947;DHT22;460;48.734;9.152;2022-10-03T12:22:30;13.70;99.90
947;DHT22;460;48.734;9.152;2022-10-03T12:25:15;13.80;99.90
947;DHT22;460;48.734;9.152;2022-10-03T12:27:55;13.90;99.90
947;DHT22;460;48.734;9.152;2022-10-03T12:30:25;13.80;99.90
947;DHT22;460;48.734;9.152;2022-10-03T12:33:07;13.90;99.90
947;DHT22;460;48.734;9.152;2022-10-03T12:35:42;13.90;99.90
947;DHT22;460;48.734;9.152;2022-10-03T12:38:24;13.90;99.90
947;DHT22;460;48.734;9.152;2022-10-03T12:41:09;14.00;99.90
947;DHT22;460;48.734;9.152;2022-10-03T12:43:52;14.20;99.90
947;DHT22;460;48.734;9.152;2022-10-03T12:46:29;14.20;99.90
947;DHT22;460;48.734;9.152;2022-10-03T12:49:02;14.30;99.90
947;DHT22;460;48.734;9.152;2022-10-03T12:51:50;14.40;99.90
947;DHT22;460;48.734;9.152;2022-10-03T12:54:34;14.40;99.90
947;DHT22;460;48.734;9.152;2022-10-03T12:58:02;14.40;99.90
947;DHT22;460;48.734;9.152;2022-10-03T13:00:58;14.40;99.90
947;DHT22;460;48.734;9.152;2022-10-03T13:03:40;14.40;99.90
947;DHT22;460;48.734;9.152;2022-10-03T13:06:33;14.50;99.90
947;DHT22;460;48.734;9.152;2022-10-03T13:09:15;14.40;99.90
947;DHT22;460;48.734;9.152;2022-10-03T13:11:54;14.50;99.90
947;DHT22;460;48.734;9.152;2022-10-03T13:17:31;14.40;99.90
947;DHT22;460;48.734;9.152;2022-10-03T13:20:05;14.40;99.90
947;DHT22;460;48.734;9.152;2022-10-03T13:22:42;14.50;99.90
947;DHT22;460;48.734;9.152;2022-10-03T13:25:17;14.50;99.90
947;DHT22;460;48.734;9.152;2022-10-03T13:27:49;14.70;99.60
947;DHT22;460;48.734;9.152;2022-10-03T13:30:22;14.60;99.90
947;DHT22;460;48.734;9.152;2022-10-03T13:32:55;14.60;99.80
947;DHT22;460;48.734;9.152;2022-10-03T13:35:32;14.60;99.90
947;DHT22;460;48.734;9.152;2022-10-03T13:41:11;14.70;99.50
947;DHT22;460;48.734;9.152;2022-10-03T13:43:44;14.60;97.80
947;DHT22;460;48.734;9.152;2022-10-03T13:46:17;14.60;99.00
947;DHT22;460;48.734;9.152;2022-10-03T13:48:51;14.60;98.60
947;DHT22;460;48.734;9.152;2022-10-03T13:51:29;14.50;99.90
947;DHT22;460;48.734;9.152;2022-10-03T13:54:02;14.50;99.80
947;DHT22;460;48.734;9.152;2022-10-03T13:56:40;14.50;99.80
947;DHT22;460;48.734;9.152;2022-10-03T13:59:20;14.40;99.50
947;DHT22;460;48.734;9.152;2022-10-03T14:01:56;14.30;99.70
947;DHT22;460;48.734;9.152;2022-10-03T14:04:56;14.30;99.90
947;DHT22;460;48.734;9.152;2022-10-03T14:07:34;14.30;99.90
947;DHT22;460;48.734;9.152;2022-10-03T14:10:19;14.40;99.90
947;DHT22;460;48.734;9.152;2022-10-03T14:13:04;14.30;99.90
947;DHT22;460;48.734;9.152;2022-10-03T14:15:44;14.20;99.40
947;DHT22;460;48.734;9.152;2022-10-03T14:18:25;14.20;99.60
947;DHT22;460;48.734;9.152;2022-10-03T14:21:28;14.20;98.70
947;DHT22;460;48.734;9.152;2022-10-03T14:24:03;14.20;99.50
947;DHT22;460;48.734;9.152;2022-10-03T14:26:36;14.30;99.90
947;DHT22;460;48.734;9.152;2022-10-03T14:29:11;14.30;99.90
947;DHT22;460;48.734;9.152;2022-10-03T14:31:46;14.20;99.90
947;DHT22;460;48.734;9.152;2022-10-03T14:34:27;14.30;99.90
947;DHT22;460;48.734;9.152;2022-10-03T14:37:06;14.30;99.90
947;DHT22;460;48.734;9.152;2022-10-03T14:39:40;14.30;99.90
947;DHT22;460;48.734;9.152;2022-10-03T14:42:31;14.30;99.90
947;DHT22;460;48.734;9.152;2022-10-03T14:45:05;14.30;99.90
947;DHT22;460;48.734;9.152;2022-10-03T14:47:35;14.30;99.90
947;DHT22;460;48.734;9.152;2022-10-03T14:50:04;14.30;99.90
947;DHT22;460;48.734;9.152;2022-10-03T14:52:36;14.30;99.90
947;DHT22;460;48.734;9.152;2022-10-03T14:55:11;14.40;99.90
947;DHT22;460;48.734;9.152;2022-10-03T14:57:43;14.30;99.90
947;DHT22;460;48.734;9.152;2022-10-03T15:00:26;14.30;99.90
947;DHT22;460;48.734;9.152;2022-10-03T15:03:12;14.30;99.90
947;DHT22;460;48.734;9.152;2022-10-03T15:05:57;14.30;99.90
947;DHT22;460;48.734;9.152;2022-10-03T15:08:30;14.30;99.90
947;DHT22;460;48.734;9.152;2022-10-03T15:10:59;14.20;99.90
947;DHT22;460;48.734;9.152;2022-10-03T15:13:27;14.20;99.90
947;DHT22;460;48.734;9.152;2022-10-03T15:16:00;14.20;97.40
947;DHT22;460;48.734;9.152;2022-10-03T15:18:28;14.20;98.40
947;DHT22;460;48.734;9.152;2022-10-03T15:20:57;14.20;99.90
947;DHT22;460;48.734;9.152;2022-10-03T15:23:26;14.30;99.90
947;DHT22;460;48.734;9.152;2022-10-03T15:25:58;14.20;98.90
947;DHT22;460;48.734;9.152;2022-10-03T15:28:27;14.10;97.90
947;DHT22;460;48.734;9.152;2022-10-03T15:30:56;14.10;97.50
947;DHT22;460;48.734;9.152;2022-10-03T15:33:34;14.10;99.90
947;DHT22;460;48.734;9.152;2022-10-03T15:36:13;14.10;99.90
947;DHT22;460;48.734;9.152;2022-10-03T15:38:43;14.10;99.90
947;DHT22;460;48.734;9.152;2022-10-03T15:41:14;14.00;99.90
947;DHT22;460;48.734;9.152;2022-10-03T15:43:44;14.00;99.80
947;DHT22;460;48.734;9.152;2022-10-03T15:46:27;14.00;99.90
947;DHT22;460;48.734;9.152;2022-10-03T15:48:57;14.00;99.90
947;DHT22;460;48.734;9.152;2022-10-03T15:51:29;14.00;99.90
947;DHT22;460;48.734;9.152;2022-10-03T15:53:58;13.90;99.90
947;DHT22;460;48.734;9.152;2022-10-03T15:56:31;13.80;99.90
947;DHT22;460;48.734;9.152;2022-10-03T15:59:01;13.90;99.90
947;DHT22;460;48.734;9.152;2022-10-03T16:01:36;13.90;99.90
947;DHT22;460;48.734;9.152;2022-10-03T16:04:05;13.80;99.90
947;DHT22;460;48.734;9.152;2022-10-03T16:06:39;13.80;99.90
947;DHT22;460;48.734;9.152;2022-10-03T16:09:16;13.70;99.90
947;DHT22;460;48.734;9.152;2022-10-03T16:11:53;13.60;99.90
947;DHT22;460;48.734;9.152;2022-10-03T16:14:26;13.60;99.90
947;DHT22;460;48.734;9.152;2022-10-03T16:16:56;13.50;99.90
947;DHT22;460;48.734;9.152;2022-10-03T16:19:36;13.40;99.90
947;DHT22;460;48.734;9.152;2022-10-03T16:22:12;13.30;99.90
947;DHT22;460;48.734;9.152;2022-10-03T16:24:56;13.30;99.90
947;DHT22;460;48.734;9.152;2022-10-03T16:27:29;13.30;99.90
947;DHT22;460;48.734;9.152;2022-10-03T16:30:14;13.20;99.90
947;DHT22;460;48.734;9.152;2022-10-03T16:32:48;13.20;99.90
947;DHT22;460;48.734;9.152;2022-10-03T16:35:29;13.10;99.90
947;DHT22;460;48.734;9.152;2022-10-03T16:37:59;13.00;99.90
947;DHT22;460;48.734;9.152;2022-10-03T16:40:27;12.90;99.90
947;DHT22;460;48.734;9.152;2022-10-03T16:42:57;12.80;99.90
947;DHT22;460;48.734;9.152;2022-10-03T16:45:28;12.70;99.90
947;DHT22;460;48.734;9.152;2022-10-03T16:47:58;12.70;99.90
947;DHT22;460;48.734;9.152;2022-10-03T16:50:48;12.60;99.90
947;DHT22;460;48.734;9.152;2022-10-03T16:53:17;12.40;99.90
947;DHT22;460;48.734;9.152;2022-10-03T16:55:48;12.50;99.90
947;DHT22;460;48.734;9.152;2022-10-03T16:58:19;12.40;99.90
947;DHT22;460;48.734;9.152;2022-10-03T17:00:53;12.30;99.90
947;DHT22;460;48.734;9.152;2022-10-03T17:03:22;12.20;99.90
947;DHT22;460;48.734;9.152;2022-10-03T17:05:54;12.10;99.90
947;DHT22;460;48.734;9.152;2022-10-03T17:08:26;11.90;99.90
947;DHT22;460;48.734;9.152;2022-10-03T17:10:57;11.90;99.90
947;DHT22;460;48.734;9.152;2022-10-03T17:13:33;11.80;99.90
947;DHT22;460;48.734;9.152;2022-10-03T17:16:07;11.90;99.90
947;DHT22;460;48.734;9.152;2022-10-03T17:18:39;11.90;99.90
947;DHT22;460;48.734;9.152;2022-10-03T17:21:19;11.70;99.90
947;DHT22;460;48.734;9.152;2022-10-03T17:23:57;11.60;99.90
947;DHT22;460;48.734;9.152;2022-10-03T17:26:29;11.60;99.90
947;DHT22;460;48.734;9.152;2022-10-03T17:29:05;11.50;99.90
947;DHT22;460;48.734;9.152;2022-10-03T17:31:40;11.40;99.90
947;DHT22;460;48.734;9.152;2022-10-03T17:34:13;11.30;99.90
947;DHT22;460;48.734;9.152;2022-10-03T17:37:13;11.20;99.90
947;DHT22;460;48.734;9.152;2022-10-03T17:39:53;11.10;99.90
947;DHT22;460;48.734;9.152;2022-10-03T17:42:33;11.00;99.90
947;DHT22;460;48.734;9.152;2022-10-03T17:45:12;11.00;99.90
947;DHT22;460;48.734;9.152;2022-10-03T17:47:48;10.90;99.90
947;DHT22;460;48.734;9.152;2022-10-03T17:50:24;10.90;99.90
947;DHT22;460;48.734;9.152;2022-10-03T17:52:55;10.80;99.90
947;DHT22;460;48.734;9.152;2022-10-03T17:55:28;10.80;99.90
947;DHT22;460;48.734;9.152;2022-10-03T17:57:58;10.80;99.90
947;DHT22;460;48.734;9.152;2022-10-03T18:00:30;10.80;99.90
947;DHT22;460;48.734;9.152;2022-10-03T18:03:02;10.70;99.90
947;DHT22;460;48.734;9.152;2022-10-03T18:05:34;10.60;99.90
947;DHT22;460;48.734;9.152;2022-10-03T18:08:05;10.50;99.90
947;DHT22;460;48.734;9.152;2022-10-03T18:10:36;10.50;99.90
947;DHT22;460;48.734;9.152;2022-10-03T18:13:13;10.40;99.90
947;DHT22;460;48.734;9.152;2022-10-03T18:16:01;10.40;99.90
947;DHT22;460;48.734;9.152;2022-10-03T18:18:55;10.40;99.90
947;DHT22;460;48.734;9.152;2022-10-03T18:21:34;10.30;99.90
947;DHT22;460;48.734;9.152;2022-10-03T18:24:22;10.20;99.90
947;DHT22;460;48.734;9.152;2022-10-03T18:27:02;10.20;99.90
947;DHT22;460;48.734;9.152;2022-10-03T18:29:36;10.20;99.90
947;DHT22;460;48.734;9.152;2022-10-03T18:32:11;10.20;99.90
947;DHT22;460;48.734;9.152;2022-10-03T18:34:43;10.20;99.90
947;DHT22;460;48.734;9.152;2022-10-03T18:40:28;10.00;99.90
947;DHT22;460;48.734;9.152;2022-10-03T18:42:56;10.00;99.90
947;DHT22;460;48.734;9.152;2022-10-03T18:45:28;9.90;99.90
947;DHT22;460;48.734;9.152;2022-10-03T18:47:59;9.90;99.90
947;DHT22;460;48.734;9.152;2022-10-03T18:50:34;9.80;99.90
947;DHT22;460;48.734;9.152;2022-10-03T18:53:15;9.80;99.90
947;DHT22;460;48.734;9.152;2022-10-03T18:55:49;9.90;99.90
947;DHT22;460;48.734;9.152;2022-10-03T18:58:19;9.80;99.90
947;DHT22;460;48.734;9.152;2022-10-03T19:00:50;9.80;99.90
947;DHT22;460;48.734;9.152;2022-10-03T19:03:21;9.70;99.90
947;DHT22;460;48.734;9.152;2022-10-03T19:05:50;9.60;99.90
947;DHT22;460;48.734;9.152;2022-10-03T19:08:24;9.50;99.90
947;DHT22;460;48.734;9.152;2022-10-03T19:10:58;9.50;99.90
947;DHT22;460;48.734;9.152;2022-10-03T19:13:29;9.60;99.90
947;DHT22;460;48.734;9.152;2022-10-03T19:16:12;9.40;99.90
947;DHT22;460;48.734;9.152;2022-10-03T19:18:51;9.50;99.90
947;DHT22;460;48.734;9.152;2022-10-03T19:21:22;9.50;99.90
947;DHT22;460;48.734;9.152;2022-10-03T19:23:52;9.50;99.90
947;DHT22;460;48.734;9.152;2022-10-03T19:26:27;9.40;99.90
947;DHT22;460;48.734;9.152;2022-10-03T19:28:57;9.30;99.90
947;DHT22;460;48.734;9.152;2022-10-03T19:31:30;9.40;99.90
947;DHT22;460;48.734;9.152;2022-10-03T19:33:59;9.50;99.90
947;DHT22;460;48.734;9.152;2022-10-03T19:36:30;9.40;99.90
947;DHT22;460;48.734;9.152;2022-10-03T19:38:58;9.30;99.90
947;DHT22;460;48.734;9.152;2022-10-03T19:41:30;9.30;99.90
947;DHT22;460;48.734;9.152;2022-10-03T19:44:03;9.30;99.90
947;DHT22;460;48.734;9.152;2022-10-03T19:46:51;9.20;99.90
947;DHT22;460;48.734;9.152;2022-10-03T19:49:26;9.30;99.90
947;DHT22;460;48.734;9.152;2022-10-03T19:52:16;9.40;99.90
947;DHT22;460;48.734;9.152;2022-10-03T19:54:52;9.20;99.90
947;DHT22;460;48.734;9.152;2022-10-03T19:57:24;9.20;99.90
947;DHT22;460;48.734;9.152;2022-10-03T19:59:53;9.20;99.90
947;DHT22;460;48.734;9.152;2022-10-03T20:02:23;9.20;99.90
947;DHT22;460;48.734;9.152;2022-10-03T20:04:52;9.20;99.90
947;DHT22;460;48.734;9.152;2022-10-03T20:07:35;9.20;99.90
947;DHT22;460;48.734;9.152;2022-10-03T20:10:20;9.20;99.90
947;DHT22;460;48.734;9.152;2022-10-03T20:13:15;9.10;99.90
947;DHT22;460;48.734;9.152;2022-10-03T20:15:51;9.10;99.90
947;DHT22;460;48.734;9.152;2022-10-03T20:18:37;9.10;99.90
947;DHT22;460;48.734;9.152;2022-10-03T20:21:09;9.10;99.90
947;DHT22;460;48.734;9.152;2022-10-03T20:23:39;9.20;99.90
947;DHT22;460;48.734;9.152;2022-10-03T20:26:16;9.20;99.90
947;DHT22;460;48.734;9.152;2022-10-03T20:29:05;9.00;99.90
947;DHT22;460;48.734;9.152;2022-10-03T20:31:38;8.90;99.90
947;DHT22;460;48.734;9.152;2022-10-03T20:34:10;9.00;99.90
947;DHT22;460;48.734;9.152;2022-10-03T20:36:40;8.90;99.90
947;DHT22;460;48.734;9.152;2022-10-03T20:39:12;8.80;99.90
947;DHT22;460;48.734;9.152;2022-10-03T20:41:57;8.80;99.90
947;DHT22;460;48.734;9.152;2022-10-03T20:47:36;8.80;99.90
947;DHT22;460;48.734;9.152;2022-10-03T20:50:11;8.90;99.90
947;DHT22;460;48.734;9.152;2022-10-03T20:52:41;8.90;99.90
947;DHT22;460;48.734;9.152;2022-10-03T20:55:17;8.80;99.90
947;DHT22;460;48.734;9.152;2022-10-03T20:57:51;8.70;99.90
947;DHT22;460;48.734;9.152;2022-10-03T21:00:22;8.70;99.90
947;DHT22;460;48.734;9.152;2022-10-03T21:02:55;8.70;99.90
947;DHT22;460;48.734;9.152;2022-10-03T21:05:25;8.60;99.90
947;DHT22;460;48.734;9.152;2022-10-03T21:07:56;8.70;99.90
947;DHT22;460;48.734;9.152;2022-10-03T21:10:27;8.70;99.90
947;DHT22;460;48.734;9.152;2022-10-03T21:12:57;8.60;99.90